This is the latest recevied weather packets stored in our database for station/object WMKC. If no packets are shown the sender has not sent any weather packets the latest 10 day(s).
| Time | Temp. | Humidity | Pressure | Rain* | Wind** | Luminosity | Snow |
|---|---|---|---|---|---|---|---|
| 1778044234 | 32.78° C | 59% | 1008 hPa | - | - | - | - |
| 1778040634 | 32.78° C | 52% | 1009 hPa | - | - | - | - |
| 1778037042 | 32.78° C | 55% | 1009 hPa | - | - | - | - |
| 1778033432 | 31.67° C | 62% | 1009 hPa | - | - | - | - |
| 1778029834 | 28.89° C | 74% | 1009 hPa | - | - | - | - |
| 1778026234 | 26.67° C | 83% | 1008 hPa | - | - | - | - |
| 1778022632 | 25.56° C | 83% | 1008 hPa | - | - | - | - |
| 1778019045 | 26.67° C | 83% | 1007 hPa | - | - | - | - |
| 1778015433 | 26.67° C | 83% | 1007 hPa | - | - | - | - |
| 1778011833 | 27.78° C | 78% | 1007 hPa | - | - | - | - |
| 1778008232 | 27.78° C | 78% | 1008 hPa | - | - | - | - |
| 1778004645 | 27.78° C | 78% | 1008 hPa | - | - | - | - |
| 1778001032 | 27.78° C | 78% | 1008 hPa | - | - | - | - |
| 1777997433 | 28.89° C | 74% | 1009 hPa | - | - | - | - |
| 1777995031 | 28.89° C | 74% | 1009 hPa | - | - | - | - |
| 1777994448 | 28.33° C | 78% | 1010 hPa | - | - | - | - |
| 1777993831 | 28.89° C | 74% | 1009 hPa | - | - | - | - |
| 1777986644 | 28.89° C | 74% | 1007 hPa | - | - | - | - |
| 1777983031 | 30° C | 70% | 1007 hPa | - | - | - | - |
| 1777979434 | 30° C | 66% | 1006 hPa | - | - | - | - |
| 1777975834 | 30.56° C | 66% | 1005 hPa | - | - | - | - |
| 1777972240 | 31.67° C | 62% | 1005 hPa | - | - | - | - |
| 1777968631 | 31.67° C | 62% | 1006 hPa | - | - | - | - |
| 1777965029 | 33.89° C | 52% | 1007 hPa | - | - | - | - |
| 1777961434 | 32.78° C | 55% | 1008 hPa | - | - | - | - |
* Rain since midnight (hover to see other rain measurements)
** Current wind speed in m/s (hover to see current wind gust speed)